Dades meteomassalio
Diari Summary for Abril 3, 2017 Units:  Metric    English   Both
« Previous Day
Next Day »
Diari Semanal Mensual Anual Personalitzat
  Maxima: Minima: Mijana:
Temperatura: -17.8 °C -14.4 °C -11.1 °C
Rosada: -17.8 °C -16.3 °C -15.4 °C
Humitat: Humidity % 35 % 60 %
Velocitat del vent: 0 km/h 0 km/h 15.3 km/h
Racha vent: 0 km/h - -
Vent:- - WSW
Pressio: 0 hPa 34591.4 hPa -
Pluja: 0 mm    
Historical Graphs
 
 
Tabular Data for Abril 3, 2017
Time Temperature Dew Point Pressure Wind Wind Speed Wind Gust Humidity Rainfall Rate (Hourly) solar Conditions
-17.8 °C -17.8 °C 0 hPa Calm     Humidity % 0 mm SolarRadiationWatts/m^2 W/m2 Conditions
00:00 -12.1 °C -15.7 °C 34635.4 hPa West 32.8 km/h 32.8 km/h 64 % 0 mm 0.0 W/m2 CLR
00:05 -12.2 °C -15.7 °C 34645.6 hPa WNW 32.8 km/h 32.8 km/h 65 % 0 mm 0.0 W/m2 CLR
00:10 -12.2 °C -15.7 °C 34645.6 hPa WSW 35.7 km/h 35.7 km/h 65 % 0 mm 0.0 W/m2 CLR
00:15 -12.2 °C -15.7 °C 34645.6 hPa WSW 31.1 km/h 31.1 km/h 65 % 0 mm 0.0 W/m2 CLR
00:20 -12.2 °C -15.7 °C 34645.6 hPa West 38.8 km/h 38.8 km/h 65 % 0 mm 0.0 W/m2 CLR
00:25 -12.3 °C -15.7 °C 34645.6 hPa West 41.7 km/h 41.7 km/h 65 % 0 mm 0.0 W/m2 CLR
00:30 -12.3 °C -15.7 °C 34659.1 hPa West 26.9 km/h 26.9 km/h 66 % 0 mm 0.0 W/m2 CLR
00:35 -12.3 °C -15.7 °C 34659.1 hPa WNW 26.9 km/h 26.9 km/h 66 % 0 mm 0.0 W/m2 CLR
00:40 -12.4 °C -15.7 °C 34659.1 hPa WNW 35.7 km/h 35.7 km/h 66 % 0 mm 0.0 W/m2 CLR
00:45 -12.4 °C -15.7 °C 34659.1 hPa West 35.7 km/h 35.7 km/h 66 % 0 mm 0.0 W/m2 CLR
00:50 -12.4 °C -15.8 °C 34659.1 hPa West 38.8 km/h 38.8 km/h 66 % 0 mm 0.0 W/m2 CLR
00:55 -12.4 °C -15.8 °C 34659.1 hPa West 35.7 km/h 35.7 km/h 66 % 0 mm 0.0 W/m2 CLR
01:00 -12.4 °C -15.8 °C 34659.1 hPa West 35.7 km/h 35.7 km/h 66 % 0 mm 0.0 W/m2 CLR
01:05 -12.6 °C -15.8 °C 34659.1 hPa NW 32.8 km/h 32.8 km/h 67 % 0 mm 0.0 W/m2 CLR
01:10 -12.6 °C -15.8 °C 34659.1 hPa West 38.8 km/h 38.8 km/h 67 % 0 mm 0.0 W/m2 CLR
01:15 -12.6 °C -15.8 °C 34659.1 hPa West 35.7 km/h 35.7 km/h 67 % 0 mm 0.0 W/m2 CLR
01:20 -12.6 °C -15.8 °C 34659.1 hPa West 38.8 km/h 38.8 km/h 67 % 0 mm 0.0 W/m2 CLR
01:25 -12.6 °C -15.8 °C 34669.3 hPa WSW 33.6 km/h 33.6 km/h 67 % 0 mm 0.0 W/m2 CLR
01:30 -12.6 °C -15.9 °C 34669.3 hPa WNW 29.8 km/h 29.8 km/h 67 % 0 mm 0.0 W/m2 CLR
01:35 -12.7 °C -15.8 °C 34669.3 hPa WNW 32.8 km/h 32.8 km/h 68 % 0 mm 0.0 W/m2 CLR
01:40 -12.7 °C -15.8 °C 34669.3 hPa WNW 50.7 km/h 50.7 km/h 68 % 0 mm 0.0 W/m2 CLR
01:45 -12.7 °C -15.8 °C 34669.3 hPa WNW 47.6 km/h 47.6 km/h 68 % 0 mm 0.0 W/m2 CLR
01:50 -12.7 °C -15.9 °C 34669.3 hPa West 41.7 km/h 41.7 km/h 68 % 0 mm 0.0 W/m2 CLR
01:55 -12.8 °C -15.9 °C 34659.1 hPa West 29.8 km/h 29.8 km/h 68 % 0 mm 0.0 W/m2 CLR
02:00 -12.8 °C -15.9 °C 34659.1 hPa WNW 35.7 km/h 35.7 km/h 68 % 0 mm 0.0 W/m2 CLR
02:05 -12.8 °C -15.9 °C 34669.3 hPa West 29.8 km/h 29.8 km/h 68 % 0 mm 0.0 W/m2 CLR
02:10 -12.8 °C -15.9 °C 34659.1 hPa West 38.8 km/h 38.8 km/h 68 % 0 mm 0.0 W/m2 CLR
02:15 -12.9 °C -15.9 °C 34659.1 hPa West 35.7 km/h 35.7 km/h 69 % 0 mm 0.0 W/m2 CLR
02:20 -12.9 °C -15.9 °C 34659.1 hPa West 29.8 km/h 29.8 km/h 69 % 0 mm 0.0 W/m2 CLR
02:25 -12.9 °C -15.9 °C 34659.1 hPa West 29.8 km/h 29.8 km/h 69 % 0 mm 0.0 W/m2 CLR
02:30 -13 °C -15.9 °C 34659.1 hPa West 31.1 km/h 31.1 km/h 70 % 0 mm 0.0 W/m2 CLR
02:35 -13 °C -15.9 °C 34659.1 hPa WSW 35.7 km/h 35.7 km/h 70 % 0 mm 0.0 W/m2 CLR
02:40 -13.1 °C -15.9 °C 34659.1 hPa West 33.6 km/h 33.6 km/h 70 % 0 mm 0.0 W/m2 CLR
02:45 -13.1 °C -15.9 °C 34669.3 hPa West 32.8 km/h 32.8 km/h 70 % 0 mm 0.0 W/m2 CLR
02:50 -13.1 °C -16 °C 34669.3 hPa West 29.8 km/h 29.8 km/h 70 % 0 mm 0.0 W/m2 CLR
02:55 -13.2 °C -15.9 °C 34669.3 hPa WSW 29.8 km/h 29.8 km/h 71 % 0 mm 0.0 W/m2 CLR
03:00 -13.2 °C -15.9 °C 34669.3 hPa WSW 32.8 km/h 32.8 km/h 71 % 0 mm 0.0 W/m2 CLR
03:05 -13.2 °C -15.9 °C 34669.3 hPa WSW 23.8 km/h 23.8 km/h 71 % 0 mm 0.0 W/m2 CLR
03:10 -13.3 °C -15.9 °C 34669.3 hPa WSW 20.9 km/h 20.9 km/h 72 % 0 mm 0.0 W/m2 CLR
03:15 -13.3 °C -15.9 °C 34669.3 hPa West 32.8 km/h 32.8 km/h 72 % 0 mm 0.0 W/m2 CLR
03:20 -13.3 °C -15.9 °C 34669.3 hPa West 32.8 km/h 32.8 km/h 72 % 0 mm 0.0 W/m2 CLR
03:25 -13.3 °C -15.9 °C 34669.3 hPa WSW 29.8 km/h 29.8 km/h 72 % 0 mm 0.0 W/m2 CLR
03:30 -13.3 °C -15.9 °C 34669.3 hPa West 32.8 km/h 32.8 km/h 72 % 0 mm 0.0 W/m2 CLR
03:35 -13.2 °C -15.9 °C 34659.1 hPa West 38.8 km/h 38.8 km/h 72 % 0 mm 0.0 W/m2 CLR
03:40 -13.2 °C -15.9 °C 34659.1 hPa West 32.8 km/h 32.8 km/h 72 % 0 mm 0.0 W/m2 CLR
03:45 -13.2 °C -15.9 °C 34659.1 hPa West 41.7 km/h 41.7 km/h 72 % 0 mm 0.0 W/m2 CLR
03:50 -13.3 °C -15.9 °C 34659.1 hPa West 41.7 km/h 41.7 km/h 72 % 0 mm 0.0 W/m2 CLR
03:55 -13.3 °C -15.8 °C 34659.1 hPa West 32.8 km/h 32.8 km/h 73 % 0 mm 0.0 W/m2 CLR
04:00 -13.3 °C -15.9 °C 34659.1 hPa West 32.8 km/h 32.8 km/h 73 % 0 mm 0.0 W/m2 CLR
04:05 -13.3 °C -15.9 °C 34659.1 hPa West 35.7 km/h 35.7 km/h 73 % 0 mm 0.0 W/m2 CLR
04:10 -13.3 °C -15.9 °C 34659.1 hPa SW 32.8 km/h 32.8 km/h 73 % 0 mm 0.0 W/m2 CLR
04:15 -13.4 °C -15.9 °C 34659.1 hPa West 29.8 km/h 29.8 km/h 73 % 0 mm 0.0 W/m2 CLR
04:20 -13.4 °C -15.9 °C 34659.1 hPa West 29.8 km/h 29.8 km/h 73 % 0 mm 0.0 W/m2 CLR
04:25 -13.4 °C -15.9 °C 34659.1 hPa WSW 35.7 km/h 35.7 km/h 73 % 0 mm 0.0 W/m2 CLR
04:30 -13.4 °C -15.9 °C 34659.1 hPa West 33.6 km/h 33.6 km/h 73 % 0 mm 0.0 W/m2 CLR
04:35 -13.4 °C -15.9 °C 34659.1 hPa WSW 32.8 km/h 32.8 km/h 73 % 0 mm 0.0 W/m2 CLR
04:40 -13.3 °C -15.9 °C 34669.3 hPa WSW 29.8 km/h 29.8 km/h 73 % 0 mm 0.0 W/m2 CLR
04:46 -13.3 °C -15.9 °C 34669.3 hPa West 29.8 km/h 29.8 km/h 73 % 0 mm 0.0 W/m2 CLR
04:51 -13.4 °C -16 °C 34669.3 hPa West 26.9 km/h 26.9 km/h 72 % 0 mm 0.0 W/m2 CLR
04:56 -13.4 °C -15.9 °C 34669.3 hPa WSW 15.6 km/h 16.1 km/h 73 % 0 mm 0.0 W/m2 CLR
05:01 -13.5 °C -16.1 °C 34669.3 hPa WSW 15.6 km/h 15.6 km/h 73 % 0 mm 0.0 W/m2 CLR
05:06 -13.6 °C -16 °C 34669.3 hPa WSW 20.9 km/h 20.9 km/h 74 % 0 mm 0.0 W/m2 CLR
05:11 -13.6 °C -16 °C 34669.3 hPa West 6 km/h 6 km/h 74 % 0 mm 0.0 W/m2 CLR
05:16 -13.7 °C -16.1 °C 34669.3 hPa WSW 15.6 km/h 15.6 km/h 74 % 0 mm 0.0 W/m2 CLR
05:21 -13.7 °C -16.1 °C 34669.3 hPa WSW 9 km/h 9 km/h 74 % 0 mm 0.0 W/m2 CLR
05:26 -13.7 °C -16 °C 34669.3 hPa WSW 23.8 km/h 23.8 km/h 75 % 0 mm 0.0 W/m2 CLR
05:31 -13.7 °C -16.1 °C 34682.8 hPa Calm     75 % 0 mm 0.0 W/m2 CLR
05:36 -13.8 °C -16.1 °C 34682.8 hPa SW 9 km/h 9 km/h 75 % 0 mm 0.0 W/m2 CLR
05:41 -13.9 °C -16.1 °C 34682.8 hPa WSW 9 km/h 9 km/h 76 % 0 mm 0.0 W/m2 CLR
05:46 -13.9 °C -16.1 °C 34682.8 hPa WSW 9 km/h 9 km/h 76 % 0 mm 0.0 W/m2 CLR
05:51 -13.9 °C -16.2 °C 34682.8 hPa WSW 11.9 km/h 11.9 km/h 76 % 0 mm 0.0 W/m2 CLR
05:56 -13.9 °C -16.2 °C 34682.8 hPa WSW 9 km/h 9 km/h 76 % 0 mm 0.0 W/m2 CLR
06:01 -14 °C -16.2 °C 34682.8 hPa WSW 3.1 km/h 3.1 km/h 76 % 0 mm 0.0 W/m2 CLR
06:06 -14.1 °C -16.2 °C 34682.8 hPa WSW 10.3 km/h 10.3 km/h 77 % 0 mm 0.0 W/m2 CLR
06:11 -14.1 °C -16.2 °C 34682.8 hPa WSW 15 km/h 15 km/h 77 % 0 mm 0.0 W/m2 CLR
06:16 -14.1 °C -16.2 °C 34682.8 hPa WSW 18.2 km/h 18.2 km/h 77 % 0 mm 0.0 W/m2 CLR
06:21 -14.1 °C -16.2 °C 34682.8 hPa WSW 3.1 km/h 3.1 km/h 77 % 0 mm 0.0 W/m2 CLR
06:26 -14.1 °C -16.2 °C 34682.8 hPa WSW 9 km/h 9 km/h 77 % 0 mm 0.0 W/m2 CLR
06:31 -14.2 °C -16.2 °C 34682.8 hPa WSW 10.3 km/h 10.3 km/h 77 % 0 mm 0.0 W/m2 CLR
06:36 -14.2 °C -16.2 °C 34693 hPa WSW 17.9 km/h 17.9 km/h 78 % 0 mm 0.0 W/m2 CLR
06:41 -14.2 °C -16.2 °C 34693 hPa WSW 15 km/h 15 km/h 78 % 0 mm 0.0 W/m2 CLR
06:46 -14.2 °C -16.2 °C 34693 hPa SW 15 km/h 15 km/h 78 % 0 mm 0.0 W/m2 CLR
06:51 -14.3 °C -16.2 °C 34693 hPa Calm     78 % 0 mm 0.0 W/m2 CLR
06:56 -14.3 °C -16.3 °C 34693 hPa Calm     78 % 0 mm 0.0 W/m2 CLR
07:01 -14.3 °C -16.3 °C 34693 hPa WSW 15 km/h 15 km/h 78 % 0 mm 0.0 W/m2 CLR
07:06 -14.3 °C -16.3 °C 34693 hPa WSW 9 km/h 9 km/h 78 % 0 mm 0.0 W/m2 CLR
07:11 -14.3 °C -16.3 °C 34693 hPa WSW 9 km/h 9 km/h 78 % 0 mm 0.0 W/m2 CLR
07:16 -14.3 °C -16.3 °C 34693 hPa WSW 9 km/h 9 km/h 78 % 0 mm 0.0 W/m2 CLR
07:21 -14.3 °C -16.3 °C 34703.1 hPa WSW 11.9 km/h 11.9 km/h 78 % 0 mm 0.0 W/m2 CLR
07:26 -14.3 °C -16.3 °C 34703.1 hPa WSW 18.2 km/h 18.2 km/h 78 % 0 mm 0.0 W/m2 CLR
07:31 -14.3 °C -16.3 °C 34703.1 hPa WSW 23.8 km/h 23.8 km/h 78 % 0 mm 0.0 W/m2 OVC
07:32 -14.3 °C -16.2 °C 34703.1 hPa WSW 20.8 km/h 20.8 km/h 78 % 0 mm 0.0 W/m2 OVC
07:37 -14.3 °C -16.2 °C 34703.1 hPa WSW 20.9 km/h 20.9 km/h 78 % 0 mm 0.0 W/m2 OVC
07:42 -14.3 °C -16.2 °C 34703.1 hPa WSW 20.9 km/h 20.9 km/h 78 % 0 mm 5.0 W/m2 OVC
07:47 -14.3 °C -16.3 °C 34703.1 hPa WSW 20.8 km/h 20.8 km/h 78 % 0 mm 7.0 W/m2 BKN
07:52 -14.3 °C -16.3 °C 34703.1 hPa SW 3.1 km/h   78 % 0 mm 11.0 W/m2 BKN
07:57 -14.3 °C -16.2 °C 34703.1 hPa Calm     79 % 0 mm 12.0 W/m2 BKN
08:02 -14.4 °C -16.3 °C 34716.7 hPa Calm     79 % 0 mm 14.0 W/m2 BKN
08:07 -14.4 °C -16.3 °C 34703.1 hPa Calm   0.3 km/h 79 % 0 mm 18.0 W/m2 BKN
08:12 -14.4 °C -16.3 °C 34703.1 hPa SW 9 km/h 9 km/h 79 % 0 mm 25.0 W/m2 BKN
08:17 -14.3 °C -16.2 °C 34703.1 hPa SW 9 km/h 9 km/h 79 % 0 mm 32.0 W/m2 BKN
08:22 -14.2 °C -16.2 °C 34716.7 hPa SW 6 km/h 6 km/h 78 % 0 mm 40.0 W/m2 BKN
08:27 -14.1 °C -16 °C 34716.7 hPa Calm     79 % 0 mm 58.0 W/m2 SCT
08:32 -14.1 °C -15.9 °C 34716.7 hPa Calm     79 % 0 mm 74.0 W/m2 SCT
08:37 -14 °C -15.9 °C 34716.7 hPa Calm     78 % 0 mm 79.0 W/m2 FEW
08:42 -13.9 °C -15.9 °C 34716.7 hPa Calm     78 % 0 mm 46.0 W/m2 FEW
08:47 -13.8 °C -15.8 °C 34716.7 hPa Calm     78 % 0 mm 30.0 W/m2 SCT
08:52 -13.7 °C -15.8 °C 34716.7 hPa Calm     77 % 0 mm 32.0 W/m2 BKN
08:57 -13.5 °C -15.6 °C 34726.8 hPa SW 5.1 km/h 5.1 km/h 77 % 0 mm 165.0 W/m2 BKN
09:02 -13.3 °C -15.6 °C 34726.8 hPa SSW 9 km/h 9 km/h 76 % 0 mm 183.0 W/m2 FEW
09:07 -13.2 °C -15.4 °C 34716.7 hPa WSW 3.1 km/h 3.1 km/h 75 % 0 mm 200.0 W/m2 CLR
09:12 -13 °C -15.5 °C 34716.7 hPa West 17.9 km/h 17.9 km/h 73 % 0 mm 220.0 W/m2 CLR
09:17 -12.8 °C -15.5 °C 34716.7 hPa SW 9 km/h 9 km/h 72 % 0 mm 241.0 W/m2 CLR
09:22 -12.7 °C -15.5 °C 34716.7 hPa West 15 km/h 15 km/h 71 % 0 mm 257.0 W/m2 CLR
09:27 -12.6 °C -15.5 °C 34726.8 hPa WSW 11.9 km/h 11.9 km/h 70 % 0 mm 272.0 W/m2 CLR
09:32 -12.5 °C -15.5 °C 34726.8 hPa WSW 29.8 km/h 29.8 km/h 69 % 0 mm 290.0 W/m2 CLR
09:37 -12.4 °C -15.4 °C 34716.7 hPa WSW 15 km/h 15 km/h 69 % 0 mm 309.0 W/m2 CLR
09:42 -12.3 °C -15.4 °C 34716.7 hPa West 11.9 km/h 11.9 km/h 69 % 0 mm 325.0 W/m2 CLR
09:47 -12.3 °C -15.4 °C 34716.7 hPa WNW 35.7 km/h 35.7 km/h 68 % 0 mm 341.0 W/m2 CLR
09:52 -12.3 °C -15.4 °C 34716.7 hPa WNW 36.2 km/h 36.2 km/h 68 % 0 mm 357.0 W/m2 CLR
09:57 -12.2 °C -15.4 °C 34716.7 hPa West 20.9 km/h 20.9 km/h 68 % 0 mm 376.0 W/m2 CLR
10:02 -12.2 °C -15.4 °C 34716.7 hPa NW 35.7 km/h 35.7 km/h 67 % 0 mm 392.0 W/m2 CLR
10:07 -12.2 °C -15.3 °C 34716.7 hPa NW 32.8 km/h 32.8 km/h 68 % 0 mm 408.0 W/m2 CLR
10:12 -12.1 °C -15.2 °C 34726.8 hPa West 29.8 km/h 29.8 km/h 68 % 0 mm 422.0 W/m2 CLR
10:17 -12 °C -15.3 °C 34716.7 hPa West 26.9 km/h 26.9 km/h 67 % 0 mm 441.0 W/m2 CLR
10:22 -12 °C -15.4 °C 34716.7 hPa West 29.8 km/h 29.8 km/h 66 % 0 mm 455.0 W/m2 CLR
10:27 -11.9 °C -15.1 °C 34716.7 hPa NW 33.6 km/h 33.6 km/h 68 % 0 mm 471.0 W/m2 CLR
10:32 -11.8 °C -15.1 °C 34716.7 hPa NW 32.8 km/h 32.8 km/h 67 % 0 mm 485.0 W/m2 CLR
10:37 -11.8 °C -15.2 °C 34716.7 hPa WNW 29.8 km/h 29.8 km/h 66 % 0 mm 503.0 W/m2 CLR
10:42 -11.8 °C -15.1 °C 34726.8 hPa NNW 32.8 km/h 32.8 km/h 67 % 0 mm 517.0 W/m2 CLR
10:47 -11.6 °C -14.8 °C 34726.8 hPa WNW 29.8 km/h 29.8 km/h 68 % 0 mm 531.0 W/m2 CLR
10:52 -11.5 °C -14.9 °C 34726.8 hPa West 29.8 km/h 29.8 km/h 66 % 0 mm 545.0 W/m2 CLR
10:57 -11.6 °C -15.1 °C 34716.7 hPa West 35.7 km/h 35.7 km/h 65 % 0 mm 557.0 W/m2 CLR
11:02 -11.6 °C -14.9 °C 34726.8 hPa WNW 29.8 km/h 29.8 km/h 66 % 0 mm 573.0 W/m2 CLR
11:07 -11.4 °C -15.1 °C 34726.8 hPa NW 23.8 km/h 23.8 km/h 64 % 0 mm 585.0 W/m2 CLR
11:12 -11.3 °C -14.9 °C 34716.7 hPa West 29.8 km/h 29.8 km/h 64 % 0 mm 599.0 W/m2 CLR
11:17 -11.2 °C -15.1 °C 34716.7 hPa West 29.8 km/h 29.8 km/h 63 % 0 mm 612.0 W/m2 CLR
11:22 -11.2 °C -15.1 °C 34716.7 hPa NW 29.8 km/h 29.8 km/h 63 % 0 mm 626.0 W/m2 CLR
11:27 -11.2 °C -14.8 °C 34716.7 hPa WNW 32.8 km/h 32.8 km/h 64 % 0 mm 636.0 W/m2 CLR
11:32 -11.1 °C -14.9 °C 34716.7 hPa NW 23.8 km/h 23.8 km/h 63 % 0 mm 649.0 W/m2 CLR
11:37 -11.1 °C -15.1 °C 34716.7 hPa West 32.8 km/h 32.8 km/h 61 % 0 mm 661.0 W/m2 CLR
11:42 -11 °C -14.8 °C 34716.7 hPa WNW 20.8 km/h 20.8 km/h 63 % 0 mm 671.0 W/m2 CLR
11:47 -10.9 °C -14.7 °C 34716.7 hPa WNW 29.8 km/h 29.8 km/h 63 % 0 mm 682.0 W/m2 CLR
11:52 -10.7 °C -14.8 °C 34716.7 hPa NNW 23.8 km/h 23.8 km/h 61 % 0 mm 693.0 W/m2 CLR
11:57 -10.6 °C -14.8 °C 34716.7 hPa SW 23.8 km/h 23.8 km/h 60 % 0 mm 701.0 W/m2 CLR
12:02 -10.6 °C -14.8 °C 34703.1 hPa WSW 9 km/h 9 km/h 60 % 0 mm 707.0 W/m2 CLR
12:08 -10.4 °C -14.5 °C 34703.1 hPa WNW 25.9 km/h 25.9 km/h 61 % 0 mm 724.0 W/m2 CLR
12:13 -10.4 °C -15 °C 34703.1 hPa WNW 29.8 km/h 29.8 km/h 57 % 0 mm 731.0 W/m2 CLR
12:18 -10.4 °C -14.7 °C 34703.1 hPa NW 32.8 km/h 32.8 km/h 59 % 0 mm 740.0 W/m2 CLR
12:23 -10.3 °C -14.7 °C 34703.1 hPa NW 36.2 km/h 36.2 km/h 59 % 0 mm 749.0 W/m2 CLR
12:28 -10.2 °C -14.8 °C 34703.1 hPa WNW 29.8 km/h 29.8 km/h 58 % 0 mm 759.0 W/m2 CLR
12:33 -10.2 °C -14.8 °C 34693 hPa NW 20.9 km/h 20.9 km/h 58 % 0 mm 766.0 W/m2 CLR
12:38 -10.1 °C -14.9 °C 34693 hPa NW 20.9 km/h 20.9 km/h 56 % 0 mm 773.0 W/m2 CLR
12:43 -9.9 °C -14.8 °C 34693 hPa NNW 28.5 km/h 28.5 km/h 56 % 0 mm 780.0 W/m2 CLR
12:48 -9.9 °C -14.6 °C 34693 hPa NNW 29.8 km/h 29.8 km/h 57 % 0 mm 788.0 W/m2 CLR
12:53 -9.8 °C -14.6 °C 34693 hPa NW 17.9 km/h 17.9 km/h 56 % 0 mm 793.0 W/m2 CLR
12:58 -9.7 °C -14.6 °C 34693 hPa NNW 29.8 km/h 29.8 km/h 55 % 0 mm 800.0 W/m2 CLR
13:03 -9.6 °C -14.6 °C 34682.8 hPa North 23.8 km/h 23.8 km/h 55 % 0 mm 805.0 W/m2 CLR
13:08 -9.6 °C -14.4 °C 34682.8 hPa NW 3.1 km/h 3.1 km/h 56 % 0 mm 810.0 W/m2 CLR
13:13 -9.6 °C -14.8 °C 34682.8 hPa NNW 20.9 km/h 20.9 km/h 53 % 0 mm 816.0 W/m2 CLR
13:18 -9.3 °C -14.5 °C 34682.8 hPa WNW 6 km/h   54 % 0 mm 821.0 W/m2 CLR
13:23 -9.3 °C -14.4 °C 34669.3 hPa WNW 17.9 km/h 17.9 km/h 54 % 0 mm 824.0 W/m2 CLR
13:28 -9.2 °C -14.9 °C 34669.3 hPa NW 2.6 km/h   50 % 0 mm 826.0 W/m2 CLR
13:33 -9.1 °C -14.7 °C 34669.3 hPa Calm     51 % 0 mm 830.0 W/m2 CLR
13:38 -9 °C -14.6 °C 34669.3 hPa NW 23.8 km/h 23.8 km/h 51 % 0 mm 831.0 W/m2 CLR
13:43 -8.9 °C -14.9 °C 34669.3 hPa Calm     49 % 0 mm 835.0 W/m2 CLR
13:48 -8.8 °C -14.6 °C 34669.3 hPa Calm     50 % 0 mm 835.0 W/m2 CLR
13:53 -8.6 °C -14.6 °C 34659.1 hPa NW 26.9 km/h 26.9 km/h 49 % 0 mm 840.0 W/m2 CLR
13:58 -8.7 °C -14.9 °C 34659.1 hPa NW 9 km/h 9 km/h 47 % 0 mm 840.0 W/m2 CLR
14:03 -8.7 °C -14.8 °C 34659.1 hPa Calm     48 % 0 mm 840.0 W/m2 CLR
14:08 -8.6 °C -14.8 °C 34659.1 hPa WSW 9 km/h 9 km/h 48 % 0 mm 840.0 W/m2 CLR
14:13 -8.4 °C -14.9 °C 34645.6 hPa WNW 6 km/h 6 km/h 46 % 0 mm 842.0 W/m2 CLR
14:18 -8.4 °C -15.4 °C 34645.6 hPa NNE 20.9 km/h 20.9 km/h 43 % 0 mm 842.0 W/m2 CLR
14:23 -8.3 °C -15 °C 34645.6 hPa Calm   0.3 km/h 45 % 0 mm 838.0 W/m2 CLR
14:28 -8.2 °C -15.1 °C 34645.6 hPa North 3.1 km/h 3.1 km/h 44 % 0 mm 838.0 W/m2 CLR
14:33 -8.1 °C -14.8 °C 34645.6 hPa Calm     45 % 0 mm 835.0 W/m2 CLR
14:38 -8.1 °C -14.9 °C 34645.6 hPa NNW 6 km/h 6 km/h 44 % 0 mm 833.0 W/m2 CLR
14:43 -8 °C -15.2 °C 34645.6 hPa NW 17.9 km/h 17.9 km/h 42 % 0 mm 831.0 W/m2 CLR
14:48 -8 °C -15.1 °C 34645.6 hPa NW 5.1 km/h 5.1 km/h 43 % 0 mm 826.0 W/m2 CLR
14:53 -8.1 °C -15.1 °C 34635.4 hPa NNE 6 km/h 6 km/h 43 % 0 mm 821.0 W/m2 CLR
14:58 -8.1 °C -14.8 °C 34635.4 hPa NW 9 km/h 9 km/h 45 % 0 mm 817.0 W/m2 CLR
15:03 -8.1 °C -14.9 °C 34635.4 hPa West 6 km/h 6 km/h 44 % 0 mm 812.0 W/m2 CLR
15:08 -7.8 °C -14.7 °C 34635.4 hPa WNW 23.3 km/h 23.3 km/h 44 % 0 mm 809.0 W/m2 CLR
15:09 -7.8 °C -14.7 °C 34635.4 hPa WNW 29.8 km/h 29.8 km/h 44 % 0 mm 809.0 W/m2 CLR
15:14 -7.8 °C -15.1 °C 34635.4 hPa Calm     42 % 0 mm 802.0 W/m2 CLR
15:19 -7.6 °C -14.4 °C 34635.4 hPa North 6 km/h 6 km/h 45 % 0 mm 793.0 W/m2 CLR
15:24 -7.5 °C -14.6 °C 34625.2 hPa North 23.8 km/h 23.8 km/h 43 % 0 mm 793.0 W/m2 CLR
15:29 -7.6 °C -14.6 °C 34625.2 hPa Calm     44 % 0 mm 780.0 W/m2 CLR
15:34 -7.6 °C -14.5 °C 34625.2 hPa NNW 2.6 km/h   44 % 0 mm 773.0 W/m2 CLR
15:39 -7.4 °C -14.6 °C 34625.2 hPa NNE 6 km/h 6 km/h 43 % 0 mm 768.0 W/m2 CLR
15:44 -7.3 °C -14.1 °C 34625.2 hPa Calm     45 % 0 mm 763.0 W/m2 CLR
15:49 -7.3 °C -14.6 °C 34625.2 hPa WNW 41.7 km/h 41.7 km/h 42 % 0 mm 756.0 W/m2 CLR
15:54 -7.3 °C -14.2 °C 34625.2 hPa North 9 km/h 9 km/h 44 % 0 mm 744.0 W/m2 CLR
15:59 -7.4 °C -14.9 °C 34611.7 hPa NNW 23.8 km/h 23.8 km/h 41 % 0 mm 733.0 W/m2 CLR
16:04 -7.4 °C -14.6 °C 34611.7 hPa ENE 3.1 km/h 3.1 km/h 43 % 0 mm 726.0 W/m2 CLR
16:09 -7.4 °C -14.6 °C 34611.7 hPa NW 26.9 km/h 26.9 km/h 43 % 0 mm 714.0 W/m2 CLR
16:14 -7.4 °C -14.9 °C 34611.7 hPa NE 15 km/h 15 km/h 41 % 0 mm 707.0 W/m2 CLR
16:19 -7.4 °C -14.8 °C 34611.7 hPa ENE 20.8 km/h 20.8 km/h 42 % 0 mm 698.0 W/m2 CLR
16:24 -7.3 °C -14.7 °C 34611.7 hPa NW 17.9 km/h 17.9 km/h 42 % 0 mm 687.0 W/m2 CLR
16:29 -7.2 °C -14.7 °C 34611.7 hPa North 23.8 km/h 23.8 km/h 41 % 0 mm 673.0 W/m2 SCT
16:34 -7.3 °C -15 °C 34611.7 hPa NNE 3.1 km/h   40 % 0 mm 663.0 W/m2 BKN
16:39 -7.2 °C -14.6 °C 34611.7 hPa NNW 5.1 km/h 5.1 km/h 42 % 0 mm 652.0 W/m2 OVC
16:44 -7 °C -14.8 °C 34611.7 hPa NW 6 km/h 6 km/h 40 % 0 mm 642.0 W/m2 OVC
16:49 -7 °C -14.9 °C 34601.5 hPa NW 9 km/h 9 km/h 39 % 0 mm 629.0 W/m2 OVC
16:54 -7 °C -14.9 °C 34601.5 hPa Calm     39 % 0 mm 613.0 W/m2 OVC
16:59 -6.9 °C -14.9 °C 34601.5 hPa NNW 9 km/h 9 km/h 39 % 0 mm 603.0 W/m2 OVC
17:04 -6.9 °C -14.7 °C 34601.5 hPa NNW 15.6 km/h 15.6 km/h 40 % 0 mm 591.0 W/m2 OVC
17:09 -6.9 °C -14.9 °C 34601.5 hPa Calm     39 % 0 mm 575.0 W/m2 OVC
17:14 -6.8 °C -15 °C 34601.5 hPa NNE 28.5 km/h 28.5 km/h 38 % 0 mm 564.0 W/m2 OVC
17:19 -6.9 °C -15.1 °C 34601.5 hPa NNE 23.8 km/h 23.8 km/h 38 % 0 mm 548.0 W/m2 OVC
17:24 -6.9 °C -15.3 °C 34601.5 hPa NNE 3.1 km/h 3.1 km/h 37 % 0 mm 536.0 W/m2 OVC
17:29 -6.9 °C -15.3 °C 34591.4 hPa NNW 12.9 km/h 12.9 km/h 37 % 0 mm 519.0 W/m2 OVC
17:34 -6.8 °C -14.8 °C 34591.4 hPa North 20.8 km/h 20.8 km/h 39 % 0 mm 504.0 W/m2 OVC
17:39 -6.8 °C -15.2 °C 34591.4 hPa NNE 5.1 km/h 5.1 km/h 37 % 0 mm 490.0 W/m2 OVC
17:44 -6.8 °C -15 °C 34591.4 hPa North 3.1 km/h 3.1 km/h 38 % 0 mm 475.0 W/m2 OVC
17:49 -6.8 °C -15.2 °C 34591.4 hPa NE 7.7 km/h 7.7 km/h 37 % 0 mm 457.0 W/m2 OVC
17:54 -6.8 °C -15.2 °C 34591.4 hPa NNW 9 km/h 9 km/h 37 % 0 mm 443.0 W/m2 OVC
17:59 -6.8 °C -15.4 °C 34591.4 hPa Calm     36 % 0 mm 427.0 W/m2 OVC
18:04 -6.8 °C -14.9 °C 34591.4 hPa Calm   0.3 km/h 38 % 0 mm 413.0 W/m2 OVC
18:10 -6.7 °C -14.9 °C 34591.4 hPa North 5.1 km/h 5.1 km/h 38 % 0 mm 397.0 W/m2 OVC
18:14 -6.8 °C -15.4 °C 34591.4 hPa North 23.8 km/h 23.8 km/h 36 % 0 mm 380.0 W/m2 OVC
18:20 -6.8 °C -15.4 °C 34591.4 hPa NNW 6 km/h 6 km/h 36 % 0 mm 362.0 W/m2 OVC
18:25 -6.8 °C -15.4 °C 34591.4 hPa NNE 6 km/h 6 km/h 36 % 0 mm 350.0 W/m2 OVC
18:30 -6.8 °C -15.4 °C 34591.4 hPa NNE 6 km/h 6 km/h 36 % 0 mm 329.0 W/m2 OVC
18:35 -6.7 °C -15.3 °C 34591.4 hPa NNE 6 km/h 6 km/h 36 % 0 mm 313.0 W/m2 OVC
18:40 -6.8 °C -15.4 °C 34591.4 hPa North 9 km/h 9 km/h 36 % 0 mm 295.0 W/m2 OVC
18:42 -6.8 °C -15.4 °C 34591.4 hPa North 3.1 km/h   36 % 0 mm 290.0 W/m2 OVC
18:47 -6.8 °C -15.4 °C 34591.4 hPa Calm     36 % 0 mm 272.0 W/m2 OVC
18:52 -6.8 °C -15.6 °C 34591.4 hPa NE 5.1 km/h 5.1 km/h 35 % 0 mm 251.0 W/m2 OVC
18:57 -6.8 °C -15.4 °C 34591.4 hPa NNE 6 km/h 6 km/h 36 % 0 mm 234.0 W/m2 OVC
19:02 -6.9 °C -15.7 °C 34591.4 hPa North 9 km/h 9 km/h 35 % 0 mm 214.0 W/m2 OVC
19:07 -6.9 °C -15.6 °C 34591.4 hPa Calm     36 % 0 mm 192.0 W/m2 OVC
19:12 -7 °C -15.6 °C 34591.4 hPa NNW 6 km/h 6 km/h 36 % 0 mm 174.0 W/m2 OVC
19:17 -7 °C -15.6 °C 34591.4 hPa Calm     36 % 0 mm 155.0 W/m2 OVC
19:22 -7 °C -15.6 °C 34591.4 hPa North 9 km/h 9 km/h 36 % 0 mm 137.0 W/m2 OVC
19:27 -7.1 °C -15.4 °C 34601.5 hPa Calm     37 % 0 mm 120.0 W/m2 OVC
19:32 -7.1 °C -15.4 °C 34601.5 hPa Calm     37 % 0 mm 98.0 W/m2 OVC
19:37 -7.1 °C -15.4 °C 34601.5 hPa Calm     37 % 0 mm 81.0 W/m2 OVC
19:42 -7.1 °C -15.8 °C 34601.5 hPa Calm     35 % 0 mm 63.0 W/m2 OVC
19:47 -7.2 °C -15.8 °C 34601.5 hPa Calm     36 % 0 mm 49.0 W/m2 OVC
19:52 -7.3 °C -15.6 °C 34601.5 hPa Calm     37 % 0 mm 39.0 W/m2 OVC
19:57 -7.3 °C -15.9 °C 34601.5 hPa Calm     36 % 0 mm 28.0 W/m2 OVC
20:02 -7.5 °C -15.6 °C 34601.5 hPa Calm     38 % 0 mm 16.0 W/m2 OVC
20:04 -7.6 °C -15.9 °C 34601.5 hPa Calm     37 % 0 mm 14.0 W/m2 OVC
20:09 -7.8 °C -15.9 °C 34601.5 hPa Calm     38 % 0 mm 11.0 W/m2 OVC
20:14 -8.1 °C -15.7 °C 34601.5 hPa Calm     40 % 0 mm 9.0 W/m2 OVC
20:19 -8.2 °C -15.5 °C 34601.5 hPa Calm     42 % 0 mm 5.0 W/m2 OVC
20:25 -8.5 °C -15.4 °C 34601.5 hPa Calm     44 % 0 mm 0.0 W/m2 OVC
20:30 -8.8 °C -15.4 °C 34601.5 hPa Calm     45 % 0 mm 0.0 W/m2 OVC
20:35 -9.1 °C -15.6 °C 34601.5 hPa Calm     46 % 0 mm 0.0 W/m2 OVC
20:40 -9.3 °C -15.4 °C 34601.5 hPa Calm     48 % 0 mm 0.0 W/m2 CLR
20:45 -9.5 °C -15.6 °C 34601.5 hPa Calm     48 % 0 mm 0.0 W/m2 CLR
20:50 -9.6 °C -15.5 °C 34601.5 hPa Calm     49 % 0 mm 0.0 W/m2 CLR
20:55 -9.6 °C -15.7 °C 34601.5 hPa Calm     48 % 0 mm 0.0 W/m2 CLR
21:00 -9.6 °C -15.5 °C 34611.7 hPa Calm     49 % 0 mm 0.0 W/m2 CLR
21:05 -9.7 °C -15.4 °C 34611.7 hPa Calm     50 % 0 mm 0.0 W/m2 CLR
21:10 -9.8 °C -15.4 °C 34611.7 hPa Calm     51 % 0 mm 0.0 W/m2 CLR
21:15 -10.1 °C -14.9 °C 34611.7 hPa Calm     56 % 0 mm 0.0 W/m2 CLR
21:20 -10.4 °C -14.9 °C 34611.7 hPa Calm     58 % 0 mm 0.0 W/m2 CLR
21:25 -10.7 °C -15.1 °C 34611.7 hPa Calm     59 % 0 mm 0.0 W/m2 CLR
21:30 -10.9 °C -15.1 °C 34611.7 hPa Calm     60 % 0 mm 0.0 W/m2 CLR
21:35 -11.1 °C -15.1 °C 34611.7 hPa Calm     61 % 0 mm 0.0 W/m2 CLR
21:40 -11.2 °C -15.1 °C 34625.2 hPa Calm     62 % 0 mm 0.0 W/m2 CLR
21:45 -11.3 °C -15.1 °C 34625.2 hPa Calm     63 % 0 mm 0.0 W/m2 CLR
21:50 -11.5 °C -15.1 °C 34625.2 hPa Calm     64 % 0 mm 0.0 W/m2 CLR
21:55 -11.6 °C -15.2 °C 34625.2 hPa Calm     64 % 0 mm 0.0 W/m2 CLR
22:00 -11.7 °C -15.1 °C 34625.2 hPa Calm     66 % 0 mm 0.0 W/m2 CLR
22:05 -11.8 °C -15.2 °C 34625.2 hPa Calm     66 % 0 mm 0.0 W/m2 CLR
22:10 -12 °C -15.3 °C 34625.2 hPa Calm     67 % 0 mm 0.0 W/m2 CLR
22:15 -12.2 °C -15.2 °C 34635.4 hPa Calm     69 % 0 mm 0.0 W/m2 CLR
22:20 -12.3 °C -15.3 °C 34635.4 hPa Calm     69 % 0 mm 0.0 W/m2 CLR
22:25 -12.4 °C -15.3 °C 34635.4 hPa Calm     70 % 0 mm 0.0 W/m2 CLR
22:30 -12.4 °C -15.3 °C 34635.4 hPa Calm     70 % 0 mm 0.0 W/m2 CLR
22:35 -12.5 °C -15.4 °C 34635.4 hPa Calm     70 % 0 mm 0.0 W/m2 CLR
22:40 -12.6 °C -15.3 °C 34645.6 hPa Calm     71 % 0 mm 0.0 W/m2 CLR
22:45 -12.6 °C -15.4 °C 34645.6 hPa Calm     71 % 0 mm 0.0 W/m2 CLR
22:50 -12.6 °C -15.4 °C 34645.6 hPa Calm     71 % 0 mm 0.0 W/m2 CLR
22:55 -12.7 °C -15.4 °C 34645.6 hPa Calm     71 % 0 mm 0.0 W/m2 CLR
23:00 -12.8 °C -15.6 °C 34645.6 hPa Calm     71 % 0 mm 0.0 W/m2 CLR
23:05 -12.9 °C -15.5 °C 34645.6 hPa Calm     72 % 0 mm 0.0 W/m2 CLR
23:10 -12.9 °C -15.6 °C 34645.6 hPa Calm     72 % 0 mm 0.0 W/m2 CLR
23:15 -13 °C -15.5 °C 34645.6 hPa Calm     73 % 0 mm 0.0 W/m2 CLR
23:20 -13.1 °C -15.7 °C 34645.6 hPa Calm     73 % 0 mm 0.0 W/m2 CLR
23:25 -13.1 °C -15.7 °C 34645.6 hPa Calm     73 % 0 mm 0.0 W/m2 CLR
23:30 -13.2 °C -15.7 °C 34659.1 hPa Calm     73 % 0 mm 0.0 W/m2 CLR
23:35 -13.2 °C -15.8 °C 34659.1 hPa Calm     73 % 0 mm 0.0 W/m2 CLR
23:40 -13.3 °C -15.7 °C 34659.1 hPa Calm     74 % 0 mm 0.0 W/m2 CLR
23:45 -13.3 °C -15.7 °C 34659.1 hPa Calm     74 % 0 mm 0.0 W/m2 CLR
23:50 -13.4 °C -15.8 °C 34659.1 hPa Calm     74 % 0 mm 0.0 W/m2 CLR
23:55 -13.4 °C -15.8 °C 34659.1 hPa Calm     74 % 0 mm 0.0 W/m2 CLR
23:56 -13.4 °C -15.8 °C 34659.1 hPa Calm     74 % 0 mm 0.0 W/m2 CLR
Lo Temps de Massalio
Compliments of Weather Underground - 1.25 mb